Thursday, November 23, 2017, 6:18 PM GMT
Back to Local

CYQI, Yarmouth, N. S.

Location: , , Canada Lat: 43.833
Local Time: 6:18 PM GMT (18:18 GMT) Lon: -66.083
Time Zone: GMT Elev: 141 ft

Show me the last for .
Show Decoded

2017-11-23 18:00 METAR CYQI 231800Z 33011KT 290V360 15SM OVC022 03/M02 A2986 RMK SC8 SLP113 =
2017-11-23 17:00 METAR CYQI 231700Z 31014KT 15SM OVC021 03/M02 A2986 RMK SC8 SLP115 =
2017-11-23 16:00 METAR CYQI 231600Z 33014G19KT 15SM OVC023 03/M02 A2987 RMK SC8 SLP116 =
2017-11-23 15:00 METAR CYQI 231500Z 32016KT 15SM OVC025 04/M01 A2988 RMK SC8 SLP121 =
2017-11-23 14:00 METAR CYQI 231400Z 31015G22KT 15SM OVC025 04/M01 A2986 RMK SC8 PRESRR SLP115 =
2017-11-23 13:00 METAR CYQI 231300Z 31017G24KT 15SM OVC023 04/00 A2982 RMK SC8 SLP102 =
2017-11-23 12:00 METAR CYQI 231200Z 33016G26KT 12SM BKN022 04/00 A2979 RMK SC7 SLP090 =
2017-11-23 11:00 METAR CYQI 231100Z 32020G29KT 10SM BKN022 04/01 A2975 RMK SC7 PRESRR SLP077 =
2017-11-23 10:00 METAR CYQI 231000Z 33024G32KT 9SM BKN020 04/01 A2971 RMK SC7 SLP065 =
2017-11-23 09:00 METAR CYQI 230900Z 32023G32KT 9SM OVC017 05/03 A2968 RMK SC8 SLP053 =
2017-11-23 08:00 METAR CYQI 230800Z 32026G37KT 9SM OVC014 05/03 A2964 RMK SC8 SLP038 =
2017-11-23 07:00 METAR CYQI 230700Z 32027G38KT 9SM -SHRA OVC012 06/03 A2960 RMK SF8 CVCTV CLD
                 EMBD PRESRR SLP024 =
2017-11-23 06:00 METAR CYQI 230600Z 32022G33KT 9SM -SHRA OVC009 06/05 A2951 RMK SF8 CVCTV CLD
                 EMBD PRESRR SLP995 =
2017-11-23 05:20 METAR CYQI 230520Z 33024G35KT 9SM -SHRA OVC009 07/06 A2947 RMK SF8 PRESRR SLP981
                 =
2017-11-23 05:00 METAR CYQI 230500Z 34023G32KT 9SM -RA OVC007 07/06 A2944 RMK SF8 SLP971 =
2017-11-23 04:34 METAR CYQI 230434Z 35027G37KT 3SM -RA BR OVC006 07/06 A2944 RMK SF8 SLP973 =
2017-11-23 04:00 METAR CYQI 230400Z 34028G37KT 3SM RA BR OVC005 08/07 A2943 RMK SF8 /R33/ SLP968
                 =
2017-11-23 03:26 METAR CYQI 230326Z 33026G35KT 2SM RA BR OVC004 09/09 A2943 RMK SF8 WSHFT 0303
                 SLP969 =
2017-11-23 03:00 METAR CYQI 230300Z 28008KT 2SM +RA BR BKN010 OVC025 13/12 A2944 RMK SF5NS3
                 SLP972 DENSITY ALT 500FT =
2017-11-23 02:53 METAR CYQI 230253Z 31005KT 2SM RA BR OVC010 12/12 A2944 RMK SF8 SLP973 DENSITY
                 ALT 500FT =
2017-11-23 02:31 METAR CYQI 230231Z 35003KT 330V040 3SM -RA BR SCT005 BKN011 OVC029 13/12 A2946
                 RMK SF4SF3NS1 PRESFR SLP977 DENSITY ALT 500FT =
2017-11-23 02:00 METAR CYQI 230200Z 10003KT 090V210 3SM RA BR OVC029 13/12 A2949 RMK NS8 /R22/
                 PRESFR SLP988 DENSITY ALT 500FT =
2017-11-23 01:00 METAR CYQI 230100Z 17010G18KT 2SM +RA BR SCT004 OVC030 13/13 A2957 RMK SF4SC4
                 PRESFR SLP017 DENSITY ALT 400FT =
2017-11-23 00:46 METAR CYQI 230046Z 16010G15KT 3SM +RA BR SCT004 BKN007 OVC016 13/13 A2959 RMK
                 SF4SF3SC1 SLP023 DENSITY ALT 300FT =
2017-11-23 00:41 METAR CYQI 230041Z 16009G18KT 3SM RA BR SCT007 OVC016 13/12 A2960 RMK SF4SC4
                 SLP024 DENSITY ALT 300FT =
2017-11-23 00:00 METAR CYQI 230000Z 17007KT 6SM -RA BR FEW016 BKN050 OVC080 13/12 A2964 RMK
                 SF1SC4AC3 SLP039 DENSITY ALT 300FT =
2017-11-22 23:00 METAR CYQI 222300Z 19016G23KT 5SM -RA BR FEW011 SCT040 OVC075 13/12 A2971 RMK
                 SF2SC2AC4 SLP064 DENSITY ALT 200FT =
2017-11-22 22:37 METAR CYQI 222237Z 19018G27KT 5SM -RA BR FEW013 BKN050 OVC075 13/12 A2973 RMK
                 SF2SC3AC3 SLP070 DENSITY ALT 200FT =
2017-11-22 22:00 METAR CYQI 222200Z 18011G17KT 9SM -SHRA FEW046 OVC065 13/12 A2976 RMK SC2SC6
                 CVCTV CLD EMBD SLP078 =
2017-11-22 21:00 METAR CYQI 222100Z 18012G17KT 9SM -SHRA BKN062 OVC075 13/11 A2979 RMK SC5AC3
                 SLP089 DENSITY ALT 200FT =
2017-11-22 20:28 METAR CYQI 222028Z 17011G17KT 10SM -SHRA BKN073 OVC130 13/11 A2981 RMK AC5AS3
                 CVCTV CLD EMBD PRESFR SLP096 DENSITY ALT 200FT =
2017-11-22 20:00 METAR CYQI 222000Z 17011G18KT 10SM BKN080 OVC130 14/11 A2984 RMK AC5AS3 SLP106
                 DENSITY ALT 200FT =
2017-11-22 19:00 METAR CYQI 221900Z 18012KT 10SM FEW035 SCT065 OVC110 14/12 A2987 RMK SC1SC2AS5
                 SLP117 =
2017-11-22 18:25 METAR CYQI 221825Z 19013G19KT 10SM FEW035 SCT064 OVC110 13/12 A2990 RMK
                 SC1SC3AS4 SLP128 =

Support USWX by starting your Amazon purchase here.